Terminal Aerodrome Forecast
Issued by NWS Jackson, MS

Home | Current Version | Previous Version | Text Only | Print | Product List | Glossary On
Versions: 1 2 3 4 5 6 7 8 9 10 11 12 13
000
FTUS44 KMEG 041724
TAFTUP
TAF
KTUP 041724Z 0418/0518 14005KT P6SM BKN050 BKN250
     FM050000 00000KT P6SM SCT250
      TEMPO 0509/0512 4SM BR
     FM051500 12004KT P6SM SCT040=

USA.gov is the U.S. government's official web portal to all federal, state and local government web resources and services.